createdAt,value
2023-05-04T00:01:49.377Z,4.67
2023-05-04T00:06:50.706Z,5.13
2023-05-04T00:11:52.367Z,4.90
2023-05-04T00:16:53.711Z,5.57
2023-05-04T00:21:55.081Z,4.97
2023-05-04T00:26:56.748Z,5.83
2023-05-04T00:31:58.219Z,5.47
2023-05-04T00:36:59.862Z,5.87
2023-05-04T00:42:01.729Z,5.43
2023-05-04T00:47:03.692Z,5.43
2023-05-04T00:52:05.481Z,5.07
2023-05-04T00:57:06.835Z,6.07
2023-05-04T01:02:08.223Z,5.90
2023-05-04T01:07:28.288Z,5.20
2023-05-04T01:12:32.706Z,4.60
2023-05-04T01:17:34.326Z,6.18
2023-05-04T01:22:37.208Z,5.90
2023-05-04T01:27:58.801Z,5.63
2023-05-04T01:33:00.624Z,5.80
2023-05-04T01:38:02.450Z,6.30
2023-05-04T01:43:03.878Z,6.47
2023-05-04T01:48:05.836Z,6.10
2023-05-04T01:53:07.325Z,6.57
2023-05-04T01:58:08.725Z,6.43
2023-05-04T02:03:10.566Z,6.30
2023-05-04T02:08:12.122Z,6.90
2023-05-04T02:13:13.899Z,6.63
2023-05-04T02:18:15.313Z,6.77
2023-05-04T02:23:16.688Z,5.73
2023-05-04T02:28:18.150Z,6.40
2023-05-04T02:33:19.503Z,7.00
2023-05-04T02:38:20.932Z,7.27
2023-05-04T02:43:22.258Z,6.87
2023-05-04T02:48:24.540Z,7.13
2023-05-04T02:53:25.918Z,7.07
2023-05-04T02:58:27.753Z,8.07
2023-05-04T03:03:29.152Z,7.33
2023-05-04T03:08:30.886Z,7.97
2023-05-04T03:13:32.282Z,7.17
2023-05-04T03:23:52.608Z,7.93
2023-05-04T03:28:53.998Z,8.33
2023-05-04T03:33:55.501Z,8.73
2023-05-04T03:38:56.985Z,7.53
2023-05-04T03:43:58.438Z,8.27
2023-05-04T03:48:59.852Z,7.47
2023-05-04T03:54:01.441Z,7.60
2023-05-04T03:59:02.882Z,7.30
2023-05-04T04:04:04.553Z,8.07
2023-05-04T04:09:05.988Z,7.77
2023-05-04T04:14:07.814Z,7.60
2023-05-04T04:19:09.767Z,7.87
2023-05-04T04:24:11.272Z,6.33
2023-05-04T04:29:12.622Z,7.20
2023-05-04T04:34:13.976Z,7.67
2023-05-04T04:39:16.605Z,7.83
2023-05-04T04:44:18.018Z,7.07
2023-05-04T04:49:19.438Z,8.30
2023-05-04T04:54:21.074Z,7.57
2023-05-04T04:59:24.843Z,8.23
2023-05-04T05:04:26.281Z,7.97
2023-05-04T05:09:27.758Z,9.53
2023-05-04T05:14:29.230Z,8.53
2023-05-04T05:19:30.800Z,8.47
2023-05-04T05:24:34.468Z,8.20
2023-05-04T05:29:35.969Z,6.53
2023-05-04T05:34:38.928Z,6.60
2023-05-04T05:39:40.406Z,6.73
2023-05-04T05:44:42.162Z,6.33
2023-05-04T05:49:46.183Z,5.90
2023-05-04T05:54:47.837Z,4.95
2023-05-04T05:59:49.275Z,6.23
2023-05-04T06:04:50.789Z,6.10
2023-05-04T06:09:52.290Z,5.53
2023-05-04T06:14:53.657Z,4.70
2023-05-04T06:19:55.026Z,5.97
2023-05-04T06:25:02.149Z,12.02
2023-05-04T06:30:05.876Z,4.93
2023-05-04T06:35:09.112Z,4.70
2023-05-04T06:40:12.408Z,4.70
2023-05-04T06:45:14.024Z,4.55
2023-05-04T06:50:15.629Z,4.55
2023-05-04T06:55:17.066Z,3.70
2023-05-04T07:00:18.570Z,3.78
2023-05-04T07:05:20.753Z,4.07
2023-05-04T07:10:22.193Z,4.07
2023-05-04T07:15:23.505Z,3.50
2023-05-04T07:20:26.420Z,3.53
2023-05-04T07:25:27.970Z,3.78
2023-05-04T07:30:29.340Z,2.97
2023-05-04T07:35:30.681Z,4.07
2023-05-04T07:40:32.118Z,3.67
2023-05-04T07:45:33.650Z,3.13
2023-05-04T07:50:35.774Z,3.40
2023-05-04T07:55:37.215Z,3.40
2023-05-04T08:00:38.758Z,3.05
2023-05-04T08:05:40.157Z,3.42
2023-05-04T08:10:41.682Z,3.17
2023-05-04T08:15:43.724Z,3.72
2023-05-04T08:20:45.163Z,3.20
2023-05-04T08:25:46.662Z,3.38
2023-05-04T08:30:48.059Z,3.22
2023-05-04T08:35:49.486Z,3.20
2023-05-04T08:40:50.885Z,2.40
2023-05-04T08:45:52.743Z,3.40
2023-05-04T08:50:54.288Z,3.38
2023-05-04T08:55:56.112Z,2.92
2023-05-04T09:00:59.069Z,3.03
2023-05-04T09:06:00.649Z,3.17
2023-05-04T09:11:02.614Z,3.30
2023-05-04T09:16:04.265Z,3.50
2023-05-04T09:21:05.932Z,3.03
2023-05-04T09:26:07.311Z,2.67
2023-05-04T09:31:08.777Z,3.22
2023-05-04T09:36:18.353Z,3.50
2023-05-04T09:41:31.069Z,3.25
2023-05-04T09:46:32.540Z,3.42
2023-05-04T09:51:34.472Z,3.63
2023-05-04T09:56:38.725Z,4.22
2023-05-04T10:06:43.184Z,3.25
2023-05-04T10:11:44.628Z,3.97
2023-05-04T10:16:52.771Z,3.22
2023-05-04T10:22:03.420Z,3.38
2023-05-04T10:27:07.161Z,3.42
2023-05-04T10:32:22.095Z,3.40
2023-05-04T10:37:23.638Z,3.08
2023-05-04T10:42:25.190Z,4.50
2023-05-04T10:47:36.835Z,3.97
2023-05-04T10:52:47.379Z,3.17
2023-05-04T10:57:49.851Z,3.33
2023-05-04T11:02:52.412Z,3.78
2023-05-04T11:07:53.941Z,3.90
2023-05-04T11:13:02.193Z,4.00
2023-05-04T11:18:04.972Z,4.60
2023-05-04T11:23:10.117Z,4.03
2023-05-04T11:28:14.381Z,5.38
2023-05-04T11:33:17.120Z,5.07
2023-05-04T11:38:21.711Z,4.60
2023-05-04T11:43:23.405Z,4.45
2023-05-04T11:48:24.865Z,4.85
2023-05-04T11:53:26.744Z,5.15
2023-05-04T11:58:28.256Z,4.35
2023-05-04T12:03:47.890Z,3.67
2023-05-04T12:09:01.365Z,4.75
2023-05-04T12:14:04.123Z,4.20
2023-05-04T12:19:10.686Z,3.90
2023-05-04T12:24:12.054Z,4.47
2023-05-04T12:29:14.526Z,3.92
2023-05-04T12:34:15.900Z,3.92
2023-05-04T12:39:17.515Z,4.20
2023-05-04T12:44:18.978Z,3.92
2023-05-04T12:49:20.345Z,4.10
2023-05-04T12:54:21.769Z,4.40
2023-05-04T12:59:23.459Z,4.47
2023-05-04T13:04:25.124Z,4.03
2023-05-04T13:09:26.681Z,3.42
2023-05-04T13:14:28.693Z,4.03
2023-05-04T13:19:30.091Z,3.13
2023-05-04T13:24:31.700Z,3.22
2023-05-04T13:29:33.017Z,2.95
2023-05-04T13:34:34.458Z,3.17
2023-05-04T13:39:40.129Z,3.65
2023-05-04T13:44:44.721Z,2.72
2023-05-04T13:49:46.102Z,2.97
2023-05-04T13:54:47.895Z,3.45
2023-05-04T14:00:05.206Z,3.53
2023-05-04T14:05:08.358Z,3.72
2023-05-04T14:10:11.131Z,3.10
2023-05-04T14:15:12.540Z,4.43
2023-05-04T14:20:13.946Z,3.83
2023-05-04T14:25:15.759Z,4.40
2023-05-04T14:30:17.163Z,3.72
2023-05-04T14:35:18.603Z,4.00
2023-05-04T14:40:20.112Z,4.25
2023-05-04T14:45:21.604Z,4.93
2023-05-04T14:50:23.004Z,4.85
2023-05-04T14:55:24.441Z,4.40
2023-05-04T15:00:25.889Z,3.83
2023-05-04T15:05:27.290Z,3.33
2023-05-04T15:10:28.929Z,3.72
2023-05-04T15:15:30.375Z,3.78
2023-05-04T15:20:31.754Z,3.17
2023-05-04T15:25:33.147Z,3.55
2023-05-04T15:30:34.514Z,4.72
2023-05-04T15:35:36.469Z,2.95
2023-05-04T15:40:37.852Z,3.00
2023-05-04T15:45:39.184Z,2.25
2023-05-04T15:50:40.552Z,2.30
2023-05-04T15:55:42.230Z,2.63
2023-05-04T16:00:43.675Z,2.38
2023-05-04T16:05:45.028Z,2.67
2023-05-04T16:10:46.395Z,1.80
2023-05-04T16:15:51.305Z,2.08
2023-05-04T16:20:54.538Z,2.20
2023-05-04T16:25:56.159Z,1.85
2023-05-04T16:30:57.937Z,2.13
2023-05-04T16:35:59.846Z,2.08
2023-05-04T16:41:01.335Z,2.10
2023-05-04T16:46:02.921Z,2.38
2023-05-04T16:51:04.881Z,2.00
2023-05-04T16:56:07.320Z,2.40
2023-05-04T17:01:10.465Z,2.53
2023-05-04T17:06:12.706Z,2.45
2023-05-04T17:11:14.132Z,1.92
2023-05-04T17:16:15.544Z,2.88
2023-05-04T17:21:17.059Z,2.65
2023-05-04T17:26:19.625Z,2.67
2023-05-04T17:31:21.099Z,2.47
2023-05-04T17:36:22.632Z,2.25
2023-05-04T17:41:25.034Z,2.30
2023-05-04T17:46:26.847Z,2.80
2023-05-04T17:51:28.234Z,3.17
2023-05-04T17:56:29.657Z,3.50
2023-05-04T18:01:31.120Z,3.03
2023-05-04T18:06:32.897Z,3.05
2023-05-04T18:11:35.581Z,4.50
2023-05-04T18:16:39.215Z,2.55
2023-05-04T18:21:40.659Z,2.83
2023-05-04T18:26:44.217Z,3.03
2023-05-04T18:31:45.627Z,2.67
2023-05-04T18:36:49.147Z,2.88
2023-05-04T18:41:50.702Z,2.43
2023-05-04T18:46:52.258Z,2.38
2023-05-04T18:51:53.650Z,2.78
2023-05-04T18:56:54.996Z,1.67
2023-05-04T19:01:56.375Z,1.88
2023-05-04T19:06:57.736Z,1.50
2023-05-04T19:11:59.237Z,1.67
2023-05-04T19:17:01.028Z,2.00
2023-05-04T19:22:02.428Z,2.05
2023-05-04T19:27:04.043Z,2.53
2023-05-04T19:32:19.879Z,2.70
2023-05-04T19:37:25.456Z,1.45
2023-05-04T19:42:26.837Z,1.80
2023-05-04T19:47:28.206Z,1.92
2023-05-04T19:52:29.649Z,2.08
2023-05-04T19:57:31.167Z,1.83
2023-05-04T20:02:32.722Z,2.00
2023-05-04T20:07:34.387Z,2.10
2023-05-04T20:12:36.114Z,1.65
2023-05-04T20:17:38.097Z,2.40
2023-05-04T20:22:39.503Z,2.15
2023-05-04T20:27:40.934Z,4.28
2023-05-04T20:32:43.988Z,2.22
2023-05-04T20:37:45.511Z,1.70
2023-05-04T20:42:47.212Z,1.70
2023-05-04T20:47:49.226Z,1.83
2023-05-04T20:52:50.851Z,2.63
2023-05-04T20:57:52.251Z,1.85
2023-05-04T21:02:54.607Z,1.98
2023-05-04T21:07:56.416Z,1.75
2023-05-04T21:12:58.232Z,2.25
2023-05-04T21:17:59.685Z,1.52
2023-05-04T21:23:01.302Z,1.65
2023-05-04T21:28:03.239Z,1.33
2023-05-04T21:33:04.671Z,1.98
2023-05-04T21:38:06.297Z,1.83
2023-05-04T21:43:08.142Z,2.10
2023-05-04T21:48:09.575Z,1.92
2023-05-04T21:53:11.328Z,1.33
2023-05-04T21:58:12.688Z,1.27
2023-05-04T22:03:14.049Z,1.45
2023-05-04T22:08:15.528Z,1.23
2023-05-04T22:13:17.288Z,1.20
2023-05-04T22:18:19.045Z,1.30
2023-05-04T22:23:20.575Z,1.30
2023-05-04T22:28:22.182Z,1.08
2023-05-04T22:33:23.673Z,1.13
2023-05-04T22:38:25.135Z,1.00
2023-05-04T22:43:26.587Z,1.48
2023-05-04T22:48:27.984Z,1.05
2023-05-04T22:53:29.507Z,0.80
2023-05-04T22:58:30.891Z,1.83
2023-05-04T23:03:32.515Z,0.85
2023-05-04T23:08:34.055Z,0.93
2023-05-04T23:13:35.577Z,0.60
2023-05-04T23:18:37.091Z,0.70
2023-05-04T23:23:38.617Z,0.60
2023-05-04T23:28:39.984Z,0.73
2023-05-04T23:33:42.018Z,0.68
2023-05-04T23:38:43.417Z,0.70
2023-05-04T23:43:44.787Z,0.82
2023-05-04T23:48:46.374Z,0.57
2023-05-04T23:53:47.833Z,1.02
2023-05-04T23:58:49.269Z,0.70
